Wadhams, New York
Current Conditions -  °F | °C
As of 12:54 PM on Thursday 18 Dec 2014 (Local Time) from KBTV Reporting Station
Overcast Overcast  
Wind Chill: 26°   Ceiling: 2500
Heat Index: 35°   Visibility: 10mi
Dew Point: 25°   Wind: 14mph
Humidity: 67%   Direction: 300°WNW
Pressure: 29.84"   Gusts: NA
Location:  44.2095°N, 73.4727°W
Report Text: KBTV 181754Z 30012KT 10SM OVC025 02/M04 A2984 RMK AO2 SLP109 4/007 60002 I6000 T00171039 10028 20006 58002
Loading
Personal Weather Stations






























Interactive Weather Map New forecast layout! Learn more

10-Day Weather Forecast

Advertisements
Track Severe Weather on mobile